Athens, Alabama
Current Conditions -  °F | °C
As of 3:53 AM on Friday 21 Nov 2014 (Local Time) from KDCU Reporting Station
Broken Clouds Broken Clouds  
Wind Chill: 37°   Ceiling: 3700
Heat Index: 41°   Visibility: 10mi
Dew Point: 26°   Wind: 6mph
Humidity: 55%   Direction: 100°E
Pressure: 30.33"   Gusts: NA
Location:  34.8°N, 86.97°W
Report Text: KDCU 210953Z AUTO 10005KT 10SM BKN037 05/M03 A3033 RMK AO2 SLP269 T00501033 $
Loading
Personal Weather Stations






























Interactive Weather Map New forecast layout! Learn more

10-Day Weather Forecast

Advertisements
Track Severe Weather on mobile